Time;durP1;ratioP1;P1;durP2;ratioP2;P2;SDS_P1;SDS_P2;PMS_P1;PMS_P2;Temp;Humidity;BMP_temperature;BMP_pressure;BME280_temperature;BME280_humidity;BME280_pressure;Samples;Min_cycle;Max_cycle;Signal;HPM_P1;HPM_P2
2023/12/08 00:02:01;;;;;;;15.70;8.10;;;;;;;0.88;89.15;95687.30;106764;1276;25304;-76
2023/12/08 00:04:29;;;;;;;15.30;8.10;;;;;;;0.84;89.09;95687.06;106916;1276;22691;-76
2023/12/08 00:06:58;;;;;;;12.40;7.20;;;;;;;0.81;89.49;95691.15;106680;1276;22545;-76
2023/12/08 00:09:26;;;;;;;13.80;8.10;;;;;;;0.79;89.58;95691.46;106693;1276;24355;-76
2023/12/08 00:11:54;;;;;;;14.50;8.10;;;;;;;0.77;89.59;95694.35;106534;1276;22642;-76
2023/12/08 00:14:22;;;;;;;11.90;8.00;;;;;;;0.74;89.81;95692.22;106573;1276;25503;-76
2023/12/08 00:16:50;;;;;;;15.00;9.10;;;;;;;0.75;89.89;95692.41;106638;1276;22933;-77
2023/12/08 00:19:19;;;;;;;15.50;8.90;;;;;;;0.73;89.77;95691.51;106779;1276;23351;-76
2023/12/08 00:21:48;;;;;;;14.40;8.10;;;;;;;0.69;89.55;95694.19;106906;1276;22568;-76
2023/12/08 00:24:16;;;;;;;14.60;8.60;;;;;;;0.61;89.62;95694.54;106613;1276;22671;-77
2023/12/08 00:26:45;;;;;;;15.20;8.40;;;;;;;0.54;89.71;95695.95;106598;1276;25359;-76
2023/12/08 00:29:13;;;;;;;17.00;8.40;;;;;;;0.49;90.07;95698.27;106386;1276;24235;-77
2023/12/08 00:31:41;;;;;;;18.20;9.20;;;;;;;0.46;90.22;95699.94;106591;1276;25284;-76
2023/12/08 00:34:10;;;;;;;18.90;9.00;;;;;;;0.42;90.32;95703.98;106601;1276;25641;-76
2023/12/08 00:36:41;;;;;;;22.20;11.00;;;;;;;0.39;90.44;95709.98;106872;1276;24269;-76
2023/12/08 00:39:09;;;;;;;16.20;8.40;;;;;;;0.38;90.51;95713.25;106666;1276;24399;-76
2023/12/08 00:41:37;;;;;;;16.70;9.40;;;;;;;0.36;90.23;95714.94;106593;1276;22526;-76
2023/12/08 00:44:08;;;;;;;19.10;9.30;;;;;;;0.34;90.28;95714.73;106591;1276;24264;-76
2023/12/08 00:46:36;;;;;;;16.50;8.40;;;;;;;0.35;90.38;95713.52;106578;1268;24438;-76
2023/12/08 00:49:05;;;;;;;16.80;8.10;;;;;;;0.34;90.44;95713.67;106576;1276;25518;-76
2023/12/08 00:51:33;;;;;;;16.50;8.10;;;;;;;0.31;90.42;95717.41;106564;1276;23881;-76
2023/12/08 00:54:01;;;;;;;15.30;7.50;;;;;;;0.30;90.41;95711.52;106741;1276;22527;-76
2023/12/08 00:56:29;;;;;;;16.50;8.40;;;;;;;0.27;90.39;95715.77;106800;1276;25597;-76
2023/12/08 00:58:58;;;;;;;19.30;8.90;;;;;;;0.26;90.41;95717.98;106520;1276;24230;-76
2023/12/08 01:01:26;;;;;;;23.20;11.40;;;;;;;0.26;90.40;95720.75;106571;1276;22653;-76
2023/12/08 01:03:54;;;;;;;25.00;11.50;;;;;;;0.26;90.81;95719.55;106592;1276;22923;-76
2023/12/08 01:06:23;;;;;;;21.00;10.80;;;;;;;0.27;90.97;95719.57;106587;1276;24974;-76
2023/12/08 01:08:51;;;;;;;22.10;11.80;;;;;;;0.31;91.24;95720.19;106814;1276;22657;-76
2023/12/08 01:11:19;;;;;;;24.30;11.30;;;;;;;0.35;91.30;95719.76;106638;1276;22523;-76
2023/12/08 01:13:47;;;;;;;22.10;10.00;;;;;;;0.40;91.34;95715.56;106583;1276;24212;-76
2023/12/08 01:16:16;;;;;;;17.10;9.30;;;;;;;0.42;90.97;95717.52;106609;1276;22527;-76
2023/12/08 01:18:44;;;;;;;21.30;10.40;;;;;;;0.42;90.85;95721.30;106755;1276;24328;-76
2023/12/08 01:21:12;;;;;;;22.40;11.00;;;;;;;0.51;91.66;95719.41;106566;1265;22532;-76
2023/12/08 01:23:41;;;;;;;21.40;10.50;;;;;;;0.63;91.90;95726.60;106616;1276;24381;-76
2023/12/08 01:26:09;;;;;;;22.30;10.00;;;;;;;0.67;90.92;95727.39;106670;1276;22524;-76
2023/12/08 01:28:37;;;;;;;19.40;10.20;;;;;;;0.65;90.62;95726.14;106879;1276;24398;-77
2023/12/08 01:31:05;;;;;;;21.60;10.30;;;;;;;0.68;90.62;95721.67;106583;1276;25453;-76
2023/12/08 01:33:33;;;;;;;16.30;9.20;;;;;;;0.73;90.57;95713.48;106601;1271;22515;-76
2023/12/08 01:36:02;;;;;;;23.50;11.70;;;;;;;0.69;89.91;95714.27;106587;1276;22539;-76
2023/12/08 01:38:50;;;;;;;19.40;10.00;;;;;;;0.65;89.91;95716.78;106640;1276;22660;-76
2023/12/08 01:41:19;;;;;;;18.20;10.30;;;;;;;0.63;90.08;95714.85;106576;1276;22537;-76
2023/12/08 01:43:47;;;;;;;20.60;9.50;;;;;;;0.63;89.98;95713.46;106554;1276;24388;-76
2023/12/08 01:46:19;;;;;;;16.40;8.70;;;;;;;0.65;90.00;95713.33;106573;1276;22525;-76
2023/12/08 01:48:48;;;;;;;22.30;9.80;;;;;;;0.69;90.11;95710.98;106600;1276;22532;-76
2023/12/08 01:51:17;;;;;;;19.50;9.00;;;;;;;0.72;90.14;95709.15;106580;1276;22536;-76
2023/12/08 01:53:46;;;;;;;19.20;10.30;;;;;;;0.73;90.13;95707.77;106912;1276;22528;-76
2023/12/08 01:56:14;;;;;;;18.80;9.10;;;;;;;0.75;90.02;95702.96;106791;1276;24403;-76
2023/12/08 01:58:44;;;;;;;24.60;10.60;;;;;;;0.71;89.68;95698.90;106615;1276;22531;-76
2023/12/08 02:01:12;;;;;;;19.40;10.70;;;;;;;0.64;89.83;95701.17;106643;1276;24257;-76
2023/12/08 02:03:42;;;;;;;22.90;11.30;;;;;;;0.62;89.92;95692.31;106645;1276;24244;-76
2023/12/08 02:06:11;;;;;;;28.00;12.80;;;;;;;0.60;89.87;95694.86;106766;1276;22529;-76
2023/12/08 02:08:40;;;;;;;25.80;11.70;;;;;;;0.58;90.01;95696.37;106918;1276;22533;-76
2023/12/08 02:11:10;;;;;;;25.80;11.20;;;;;;;0.58;90.18;95692.91;106841;1276;25360;-76
2023/12/08 02:13:41;;;;;;;22.80;10.50;;;;;;;0.60;90.38;95697.29;106688;1276;22528;-76
2023/12/08 02:16:22;;;;;;;27.60;11.60;;;;;;;0.61;90.34;95698.02;106644;1276;24252;-76
2023/12/08 02:18:51;;;;;;;27.90;13.20;;;;;;;0.60;90.22;95699.02;106655;1276;24352;-76
2023/12/08 02:21:20;;;;;;;30.20;14.10;;;;;;;0.60;90.50;95704.56;106777;1276;25522;-76
2023/12/08 02:23:49;;;;;;;35.80;16.10;;;;;;;0.58;90.24;95702.95;106610;1276;22638;-76
2023/12/08 02:26:19;;;;;;;30.60;14.20;;;;;;;0.57;90.58;95709.52;106798;1276;22520;-76
2023/12/08 02:28:48;;;;;;;28.00;13.20;;;;;;;0.58;90.53;95711.45;106626;1276;22804;-76
2023/12/08 02:31:22;;;;;;;23.40;12.30;;;;;;;0.56;90.47;95709.48;106881;1276;23022;-76
2023/12/08 02:33:53;;;;;;;29.90;14.20;;;;;;;0.55;90.48;95714.31;106613;1276;22528;-76
2023/12/08 02:36:22;;;;;;;32.70;13.60;;;;;;;0.54;90.44;95713.94;106693;1276;25418;-76
2023/12/08 02:38:51;;;;;;;29.80;13.60;;;;;;;0.49;90.37;95707.59;106573;1276;22553;-76
2023/12/08 02:41:20;;;;;;;30.00;13.80;;;;;;;0.45;90.43;95708.73;106591;1276;23345;-76
2023/12/08 02:43:48;;;;;;;27.10;12.30;;;;;;;0.41;90.45;95705.87;106722;1276;22536;-76
2023/12/08 02:46:16;;;;;;;23.50;11.40;;;;;;;0.37;90.31;95708.91;106681;1276;24261;-76
2023/12/08 02:48:44;;;;;;;24.70;12.20;;;;;;;0.30;90.34;95704.24;106598;1276;25404;-76
2023/12/08 02:51:22;;;;;;;25.00;11.60;;;;;;;0.29;90.65;95709.05;106572;1276;22522;-76
2023/12/08 02:53:50;;;;;;;30.80;13.70;;;;;;;0.28;90.75;95704.71;106602;1276;22572;-76
2023/12/08 02:56:19;;;;;;;26.80;12.40;;;;;;;0.26;90.62;95704.83;106637;1276;22523;-76
2023/12/08 02:58:47;;;;;;;33.70;14.30;;;;;;;0.23;90.45;95704.95;106533;1276;22630;-76
2023/12/08 03:01:15;;;;;;;34.90;16.00;;;;;;;0.23;90.57;95703.23;106621;1276;25370;-76
2023/12/08 03:03:43;;;;;;;35.70;15.20;;;;;;;0.25;90.84;95710.52;106663;1276;22536;-76
2023/12/08 03:06:11;;;;;;;35.80;15.20;;;;;;;0.26;91.07;95713.31;106605;1276;22527;-76
2023/12/08 03:08:40;;;;;;;33.80;14.70;;;;;;;0.27;91.29;95713.33;106613;1276;24365;-76
2023/12/08 03:11:08;;;;;;;28.30;14.10;;;;;;;0.28;90.98;95714.42;106610;1276;24354;-76
2023/12/08 03:13:36;;;;;;;29.30;13.50;;;;;;;0.31;91.30;95713.95;106646;1276;24048;-76
2023/12/08 03:16:05;;;;;;;29.50;14.00;;;;;;;0.34;91.43;95712.64;106596;1276;24245;-76
2023/12/08 03:18:33;;;;;;;26.10;13.30;;;;;;;0.34;91.17;95712.13;106654;1276;25260;-76
2023/12/08 03:21:02;;;;;;;30.20;13.90;;;;;;;0.32;91.23;95710.02;106536;1276;25500;-76
2023/12/08 03:23:30;;;;;;;28.70;13.40;;;;;;;0.34;91.46;95716.45;106609;1276;22523;-76
2023/12/08 03:25:59;;;;;;;30.10;14.20;;;;;;;0.39;91.58;95719.86;106676;1276;25410;-76
2023/12/08 03:28:27;;;;;;;30.10;13.80;;;;;;;0.45;91.36;95719.63;106584;1276;22527;-76
2023/12/08 03:30:55;;;;;;;28.70;13.90;;;;;;;0.52;91.80;95714.93;106582;1276;22589;-76
2023/12/08 03:33:23;;;;;;;26.30;14.00;;;;;;;0.58;91.38;95713.51;106599;1276;22540;-76
2023/12/08 03:35:51;;;;;;;31.00;14.60;;;;;;;0.59;91.12;95716.13;106567;1276;25344;-76
2023/12/08 03:38:20;;;;;;;27.80;13.90;;;;;;;0.58;90.88;95715.58;106769;1276;25347;-76
2023/12/08 03:40:48;;;;;;;30.30;14.90;;;;;;;0.58;90.72;95721.14;106605;1276;23881;-76
2023/12/08 03:43:16;;;;;;;32.40;14.70;;;;;;;0.65;91.01;95725.42;106606;1276;22539;-76
2023/12/08 03:45:44;;;;;;;26.70;14.00;;;;;;;0.69;90.87;95721.20;106673;1276;22647;-77
2023/12/08 03:48:12;;;;;;;33.40;15.00;;;;;;;0.70;90.41;95715.16;106600;1276;22531;-76
2023/12/08 03:50:41;;;;;;;32.00;14.80;;;;;;;0.70;90.29;95710.31;106614;1276;22992;-76
2023/12/08 03:53:09;;;;;;;31.90;14.60;;;;;;;0.69;90.12;95711.66;106605;1276;22646;-76
2023/12/08 03:55:37;;;;;;;28.90;14.40;;;;;;;0.67;90.17;95710.08;106658;1276;22516;-76
2023/12/08 03:58:05;;;;;;;39.00;18.30;;;;;;;0.66;90.18;95714.73;106558;1276;22653;-76
2023/12/08 04:00:33;;;;;;;31.60;16.10;;;;;;;0.67;90.38;95717.34;106676;1276;22529;-76
2023/12/08 04:03:02;;;;;;;35.00;16.90;;;;;;;0.65;90.32;95720.77;106597;1276;22574;-76
2023/12/08 04:05:30;;;;;;;36.00;17.30;;;;;;;0.66;90.64;95716.97;106567;1276;25380;-76
2023/12/08 04:07:58;;;;;;;30.20;15.20;;;;;;;0.74;91.05;95707.45;106632;1276;22530;-75
2023/12/08 04:10:26;;;;;;;32.00;14.50;;;;;;;0.76;90.63;95712.85;106608;1276;22540;-75
2023/12/08 04:12:54;;;;;;;25.90;13.40;;;;;;;0.79;90.85;95715.18;106649;1276;22541;-75
2023/12/08 04:15:23;;;;;;;27.40;13.60;;;;;;;0.76;90.34;95711.48;106590;1276;24265;-75
2023/12/08 04:17:51;;;;;;;34.50;16.30;;;;;;;0.73;90.28;95710.73;106616;1276;22534;-74
2023/12/08 04:20:20;;;;;;;38.40;17.90;;;;;;;0.67;90.08;95712.16;106674;1276;24279;-76
2023/12/08 04:22:48;;;;;;;35.80;16.70;;;;;;;0.66;90.50;95707.97;106293;1276;25361;-76
2023/12/08 04:25:17;;;;;;;39.40;17.20;;;;;;;0.67;90.61;95710.58;106529;1276;22534;-76
2023/12/08 04:27:45;;;;;;;39.30;18.70;;;;;;;0.62;90.26;95714.30;106592;1275;25272;-76
2023/12/08 04:30:28;;;;;;;40.00;19.60;;;;;;;0.58;90.13;95711.42;103510;1307;546279;-75
2023/12/08 04:32:57;;;;;;;37.90;18.30;;;;;;;0.51;90.28;95709.72;105856;1290;25446;-75
2023/12/08 04:35:25;;;;;;;40.70;17.90;;;;;;;0.48;90.43;95705.67;105939;1287;23161;-75
2023/12/08 04:37:53;;;;;;;30.10;15.40;;;;;;;0.42;90.19;95702.77;105748;1291;25274;-75
2023/12/08 04:40:22;;;;;;;34.60;17.20;;;;;;;0.34;90.12;95703.30;105541;1291;25458;-75
2023/12/08 04:42:50;;;;;;;40.20;16.90;;;;;;;0.29;90.16;95703.20;105593;1290;25463;-75
2023/12/08 04:45:18;;;;;;;42.60;18.80;;;;;;;0.25;90.06;95703.63;105571;1288;224255;-75
2023/12/08 04:47:46;;;;;;;36.70;18.50;;;;;;;0.23;90.09;95705.66;105922;1288;22536;-75
2023/12/08 04:50:15;;;;;;;46.10;22.80;;;;;;;0.22;90.24;95709.59;105964;1288;25443;-76
2023/12/08 04:52:43;;;;;;;43.40;22.80;;;;;;;0.20;90.34;95713.89;105776;1288;25509;-75
2023/12/08 04:55:11;;;;;;;39.10;19.10;;;;;;;0.25;90.72;95713.30;105788;1288;24444;-75
2023/12/08 04:57:39;;;;;;;35.20;17.50;;;;;;;0.31;91.12;95713.95;105797;1288;22565;-75
2023/12/08 05:00:07;;;;;;;34.40;15.80;;;;;;;0.36;91.28;95718.59;105878;1288;22698;-75
2023/12/08 05:02:35;;;;;;;36.20;17.80;;;;;;;0.43;91.28;95719.94;105937;1288;23029;-75
2023/12/08 05:05:04;;;;;;;35.50;17.00;;;;;;;0.46;91.01;95724.66;105936;1288;25359;-76
2023/12/08 05:07:32;;;;;;;30.80;17.00;;;;;;;0.49;90.98;95725.26;105830;1288;24410;-76
2023/12/08 05:10:00;;;;;;;30.50;16.90;;;;;;;0.58;91.44;95728.23;105794;1288;22543;-76
2023/12/08 05:12:28;;;;;;;32.90;17.80;;;;;;;0.64;90.76;95729.22;105741;1288;25762;-75
2023/12/08 05:14:57;;;;;;;33.60;17.70;;;;;;;0.59;89.92;95732.58;105753;1288;22540;-76
2023/12/08 05:17:25;;;;;;;33.10;17.10;;;;;;;0.55;89.98;95735.26;106187;1280;25618;-75
2023/12/08 05:19:54;;;;;;;33.70;16.00;;;;;;;0.58;90.24;95735.67;106603;1280;22541;-76
2023/12/08 05:22:22;;;;;;;30.50;15.60;;;;;;;0.67;91.10;95733.80;106262;1280;25446;-76
2023/12/08 05:24:50;;;;;;;30.00;15.50;;;;;;;0.78;91.08;95732.30;106186;1280;24234;-76
2023/12/08 05:27:19;;;;;;;30.00;16.10;;;;;;;0.81;90.66;95731.49;106234;1281;25471;-76
2023/12/08 05:29:47;;;;;;;33.70;15.60;;;;;;;0.92;90.99;95730.33;106579;1280;23734;-76
2023/12/08 05:32:15;;;;;;;30.10;14.30;;;;;;;0.92;89.78;95725.65;106607;1276;25290;-75
2023/12/08 05:34:43;;;;;;;33.50;17.20;;;;;;;0.85;89.87;95726.20;106529;1280;22786;-76
2023/12/08 05:37:12;;;;;;;31.10;16.50;;;;;;;0.73;89.27;95731.15;106204;1280;25283;-75
2023/12/08 05:39:40;;;;;;;32.90;16.30;;;;;;;0.60;89.25;95735.02;106133;1280;22529;-75
2023/12/08 05:42:08;;;;;;;30.90;15.40;;;;;;;0.52;89.60;95736.73;106159;1281;24408;-75
2023/12/08 05:44:36;;;;;;;33.10;15.70;;;;;;;0.46;89.70;95735.93;106385;1281;23983;-76
2023/12/08 05:47:05;;;;;;;31.30;15.90;;;;;;;0.33;89.25;95734.09;106390;1281;22789;-75
2023/12/08 05:49:34;;;;;;;63.20;38.10;;;;;;;0.22;89.27;95732.60;106150;1281;25668;-75
2023/12/08 05:52:03;;;;;;;38.60;21.60;;;;;;;0.12;89.35;95732.02;106753;1277;23721;-75
2023/12/08 05:54:31;;;;;;;37.10;20.70;;;;;;;0.03;89.51;95735.26;106760;1277;22522;-75
2023/12/08 05:56:59;;;;;;;34.50;16.40;;;;;;;-0.05;89.60;95738.36;106498;1277;22532;-75
2023/12/08 05:59:28;;;;;;;30.60;14.00;;;;;;;-0.14;89.65;95741.80;106535;1277;24069;-75
2023/12/08 06:01:56;;;;;;;27.00;14.30;;;;;;;-0.23;89.40;95742.41;106697;1277;24382;-77
2023/12/08 06:04:24;;;;;;;26.80;12.40;;;;;;;-0.33;89.42;95745.10;106501;1277;22526;-76
2023/12/08 06:06:53;;;;;;;33.90;16.20;;;;;;;-0.45;89.19;95747.38;106690;1277;23155;-77
2023/12/08 06:09:23;;;;;;;30.70;14.90;;;;;;;-0.59;89.35;95754.80;106606;1277;24261;-77
2023/12/08 06:11:51;;;;;;;23.90;12.20;;;;;;;-0.72;89.15;95758.95;106615;1277;22550;-75
2023/12/08 06:14:20;;;;;;;20.70;10.00;;;;;;;-0.81;89.32;95765.23;106729;1277;24094;-74
2023/12/08 06:16:48;;;;;;;40.20;18.10;;;;;;;-0.89;89.74;95763.30;106707;1277;23134;-76
2023/12/08 06:19:17;;;;;;;98.80;48.40;;;;;;;-0.94;90.19;95758.67;106790;1277;22639;-76
2023/12/08 06:21:46;;;;;;;45.30;18.80;;;;;;;-0.94;89.98;95752.46;106782;1277;25362;-75
2023/12/08 06:24:14;;;;;;;34.80;17.60;;;;;;;-0.92;89.93;95758.38;106529;1277;24511;-75
2023/12/08 06:26:42;;;;;;;12.70;6.80;;;;;;;-0.88;90.15;95763.34;106510;1277;24229;-75
2023/12/08 06:29:11;;;;;;;19.10;9.30;;;;;;;-0.79;90.61;95763.41;106500;1277;22541;-76
2023/12/08 06:31:39;;;;;;;19.00;10.00;;;;;;;-0.69;90.71;95768.55;106447;1277;24398;-75
2023/12/08 06:34:07;;;;;;;10.80;6.20;;;;;;;-0.59;90.79;95770.52;106607;1277;25493;-75
2023/12/08 06:36:48;;;;;;;8.10;5.30;;;;;;;-0.49;90.45;95762.48;106632;1277;22530;-77
2023/12/08 06:39:16;;;;;;;18.10;10.60;;;;;;;-0.47;89.93;95766.16;106779;1277;22668;-76
2023/12/08 06:41:45;;;;;;;23.40;12.70;;;;;;;-0.45;89.96;95766.04;106712;1277;24386;-75
2023/12/08 06:44:13;;;;;;;18.60;9.60;;;;;;;-0.35;90.50;95764.75;106470;1277;22541;-76
2023/12/08 06:46:43;;;;;;;37.30;18.80;;;;;;;-0.27;90.34;95768.59;106509;1277;22542;-75
2023/12/08 06:49:11;;;;;;;37.50;19.90;;;;;;;-0.16;90.68;95771.13;106632;1277;25450;-75
2023/12/08 06:51:40;;;;;;;67.50;33.00;;;;;;;-0.05;90.65;95769.66;106485;1277;24240;-75
2023/12/08 06:54:08;;;;;;;64.60;34.50;;;;;;;0.03;90.46;95772.63;106404;1277;25416;-75
2023/12/08 06:56:40;;;;;;;55.60;24.90;;;;;;;0.10;90.38;95776.95;106543;1277;22627;-75
2023/12/08 06:59:09;;;;;;;33.10;16.80;;;;;;;0.19;90.46;95776.64;106476;1277;24239;-76
2023/12/08 07:01:37;;;;;;;33.10;15.40;;;;;;;0.27;90.55;95774.77;106653;1277;24324;-76
2023/12/08 07:04:06;;;;;;;30.50;15.10;;;;;;;0.33;90.17;95775.42;106531;1277;22609;-76
2023/12/08 07:06:34;;;;;;;32.80;15.90;;;;;;;0.35;89.86;95774.45;106481;1277;22799;-76
2023/12/08 07:09:03;;;;;;;30.20;16.00;;;;;;;0.38;89.35;95776.25;106567;1277;23323;-78
2023/12/08 07:11:31;;;;;;;31.00;17.00;;;;;;;0.42;89.47;95776.16;106558;1267;22658;-77
2023/12/08 07:13:59;;;;;;;28.90;15.10;;;;;;;0.47;89.32;95774.02;106509;1277;22657;-75
2023/12/08 07:16:28;;;;;;;33.50;16.90;;;;;;;0.44;88.98;95772.40;106623;1273;22641;-75
2023/12/08 07:18:57;;;;;;;43.80;19.90;;;;;;;0.46;89.29;95773.30;106568;1271;25361;-78
2023/12/08 07:21:26;;;;;;;47.10;21.90;;;;;;;0.41;88.78;95771.99;106757;1277;22544;-77
2023/12/08 07:23:54;;;;;;;49.60;21.70;;;;;;;0.37;89.01;95767.90;106664;1277;25522;-77
2023/12/08 07:26:23;;;;;;;44.20;19.60;;;;;;;0.34;88.95;95763.34;106636;1277;22579;-77
2023/12/08 07:28:51;;;;;;;50.20;20.90;;;;;;;0.25;88.59;95762.77;106589;1277;22537;-76
2023/12/08 07:31:19;;;;;;;50.90;21.50;;;;;;;0.15;88.75;95760.65;106482;1277;22519;-77
2023/12/08 07:33:47;;;;;;;55.60;23.80;;;;;;;0.10;88.97;95764.66;106608;1277;25257;-77
2023/12/08 07:36:15;;;;;;;54.30;21.50;;;;;;;0.05;89.19;95767.32;106465;1277;24211;-78
2023/12/08 07:38:44;;;;;;;39.50;19.30;;;;;;;0.05;89.39;95766.10;106562;1277;22664;-76
2023/12/08 07:41:12;;;;;;;50.30;21.50;;;;;;;0.05;89.38;95766.28;106474;1277;23893;-78
2023/12/08 07:43:40;;;;;;;33.00;14.20;;;;;;;0.09;89.72;95768.30;106542;1277;22644;-76
2023/12/08 07:46:08;;;;;;;33.50;14.70;;;;;;;0.15;89.69;95776.91;106532;1277;26045;-79
2023/12/08 07:48:37;;;;;;;45.10;19.90;;;;;;;0.14;89.45;95782.93;106481;1277;24259;-77
2023/12/08 07:51:05;;;;;;;47.80;21.20;;;;;;;0.18;89.69;95780.77;106506;1277;25414;-77
2023/12/08 07:53:34;;;;;;;41.80;19.70;;;;;;;0.23;89.70;95783.14;106468;1277;26678;-77
2023/12/08 07:56:02;;;;;;;46.80;23.40;;;;;;;0.26;89.78;95781.49;106588;1277;22541;-76
2023/12/08 07:58:30;;;;;;;57.90;27.70;;;;;;;0.28;89.75;95787.94;106525;1277;22661;-79
2023/12/08 08:00:58;;;;;;;60.00;24.60;;;;;;;0.27;89.79;95787.92;106542;1277;26052;-77
2023/12/08 08:03:27;;;;;;;59.30;27.00;;;;;;;0.26;89.61;95789.62;106434;1277;22645;-79
2023/12/08 08:05:55;;;;;;;60.20;26.90;;;;;;;0.29;89.88;95788.14;106360;1277;24293;-79
2023/12/08 08:08:23;;;;;;;50.90;23.80;;;;;;;0.32;89.51;95791.30;106494;1277;22670;-79
2023/12/08 08:10:52;;;;;;;44.20;21.70;;;;;;;0.32;89.44;95791.67;106396;1277;22535;-79
2023/12/08 08:13:20;;;;;;;55.30;24.50;;;;;;;0.28;89.34;95798.48;106492;1277;24230;-78
2023/12/08 08:15:48;;;;;;;48.60;21.70;;;;;;;0.34;89.88;95802.27;106488;1277;25443;-78
2023/12/08 08:18:16;;;;;;;49.90;22.90;;;;;;;0.42;90.06;95812.67;106732;1277;23894;-77
2023/12/08 08:20:44;;;;;;;35.40;18.30;;;;;;;0.46;89.62;95813.64;106791;1277;23923;-79
2023/12/08 08:23:13;;;;;;;39.60;18.30;;;;;;;0.43;89.15;95813.22;106762;1277;22540;-78
2023/12/08 08:25:41;;;;;;;41.70;21.30;;;;;;;0.38;88.88;95811.38;106691;1277;24269;-77
2023/12/08 08:28:09;;;;;;;58.80;33.70;;;;;;;0.34;88.69;95807.80;106595;1277;25387;-77
2023/12/08 08:30:40;;;;;;;35.80;18.40;;;;;;;0.28;88.92;95805.59;106434;1277;25175;-76
2023/12/08 08:33:09;;;;;;;39.10;18.00;;;;;;;0.29;89.10;95802.66;106862;1277;25253;-78
2023/12/08 08:35:40;;;;;;;74.40;34.10;;;;;;;0.25;88.59;95798.25;106695;1277;22527;-76
2023/12/08 08:38:11;;;;;;;80.40;34.90;;;;;;;0.35;89.68;95800.91;106548;1277;26035;-76
2023/12/08 08:40:39;;;;;;;40.10;19.00;;;;;;;0.54;90.20;95804.30;106500;1277;24392;-76
2023/12/08 08:43:07;;;;;;;38.90;18.20;;;;;;;0.76;90.16;95805.84;106390;1277;22644;-76
2023/12/08 08:45:36;;;;;;;52.80;23.40;;;;;;;0.99;89.78;95801.13;106426;1277;22661;-77
2023/12/08 08:48:04;;;;;;;44.70;21.00;;;;;;;1.18;88.85;95790.96;106687;1254;22806;-76
2023/12/08 08:50:33;;;;;;;34.10;17.40;;;;;;;1.26;87.50;95787.16;106647;1277;26535;-77
2023/12/08 08:53:16;;;;;;;31.40;16.70;;;;;;;1.28;87.50;95786.34;106541;1277;22577;-79
2023/12/08 08:55:45;;;;;;;35.20;19.30;;;;;;;1.31;87.56;95784.31;106833;1278;25536;-78
2023/12/08 08:58:13;;;;;;;32.80;17.30;;;;;;;1.36;87.72;95780.08;106557;1278;22766;-78
2023/12/08 09:00:42;;;;;;;38.10;18.90;;;;;;;1.42;87.49;95780.55;106500;1278;22532;-78
2023/12/08 09:03:10;;;;;;;28.70;17.60;;;;;;;1.39;87.36;95775.45;106472;1278;25524;-78
2023/12/08 09:05:41;;;;;;;26.60;15.60;;;;;;;1.46;87.76;95773.34;106800;1278;24235;-78
2023/12/08 09:08:10;;;;;;;28.80;17.20;;;;;;;1.56;87.52;95767.97;106485;1278;22526;-76
2023/12/08 09:10:40;;;;;;;23.20;13.90;;;;;;;1.70;87.66;95763.38;106429;1278;22527;-77
2023/12/08 09:13:08;;;;;;;33.30;16.30;;;;;;;1.77;87.02;95759.17;106585;1267;22531;-77
2023/12/08 09:15:36;;;;;;;30.60;16.70;;;;;;;1.72;86.55;95757.71;106798;1278;22667;-78
2023/12/08 09:18:05;;;;;;;29.80;16.10;;;;;;;1.68;86.57;95758.33;106425;1278;24417;-77
2023/12/08 09:20:36;;;;;;;28.90;16.10;;;;;;;1.68;86.77;95762.48;106413;1277;24256;-76
2023/12/08 09:23:05;;;;;;;30.10;16.20;;;;;;;1.73;86.92;95758.74;106482;1277;23144;-77
2023/12/08 09:25:35;;;;;;;27.10;15.50;;;;;;;1.78;86.94;95754.50;106659;1278;22621;-76
2023/12/08 09:28:05;;;;;;;29.20;15.70;;;;;;;1.83;86.87;95755.63;106595;1274;22574;-76
2023/12/08 09:30:33;;;;;;;25.50;14.90;;;;;;;1.86;86.66;95755.16;106588;1275;22645;-77
2023/12/08 09:33:01;;;;;;;28.30;16.40;;;;;;;1.89;86.62;95755.73;106505;1278;22526;-77
2023/12/08 09:35:30;;;;;;;26.70;15.40;;;;;;;1.92;86.73;95751.11;106652;1277;26082;-76
2023/12/08 09:37:59;;;;;;;31.70;16.50;;;;;;;1.91;86.43;95745.38;106727;1278;22569;-76
2023/12/08 09:40:28;;;;;;;21.20;11.90;;;;;;;1.93;86.55;95740.90;106821;1274;25423;-76
2023/12/08 09:43:34;;;;;;;19.50;10.80;;;;;;;1.95;85.91;95731.73;106736;1278;23461;-77
2023/12/08 09:46:03;;;;;;;30.10;16.30;;;;;;;2.00;85.69;95731.81;106620;1277;25423;-78
2023/12/08 09:48:36;;;;;;;28.10;16.10;;;;;;;2.01;85.65;95729.23;106723;1278;22556;-78
2023/12/08 09:51:07;;;;;;;24.50;15.80;;;;;;;2.01;85.45;95734.96;106802;1278;24424;-77
2023/12/08 09:53:37;;;;;;;23.20;13.60;;;;;;;2.02;85.83;95730.64;107000;1278;22554;-77
2023/12/08 09:56:06;;;;;;;26.20;14.50;;;;;;;2.03;85.77;95725.61;106823;1278;23173;-78
2023/12/08 09:58:36;;;;;;;23.60;13.80;;;;;;;2.03;85.36;95727.36;106816;1277;23011;-78
2023/12/08 10:01:08;;;;;;;30.40;16.30;;;;;;;2.00;84.87;95724.52;106575;1277;22533;-76
2023/12/08 10:03:36;;;;;;;18.40;11.00;;;;;;;1.98;85.13;95727.27;106597;1277;22652;-77
2023/12/08 10:06:07;;;;;;;18.80;11.30;;;;;;;1.96;84.51;95728.10;106722;1277;24273;-76
2023/12/08 10:08:36;;;;;;;26.20;12.80;;;;;;;1.93;84.52;95727.19;106710;1277;22526;-78
2023/12/08 10:11:05;;;;;;;27.70;14.40;;;;;;;1.89;84.48;95732.67;106598;1277;25429;-79
2023/12/08 10:13:34;;;;;;;32.20;15.70;;;;;;;1.93;85.44;95728.41;106703;1277;22934;-79
2023/12/08 10:16:02;;;;;;;20.00;11.10;;;;;;;2.03;85.43;95725.45;106615;1277;26546;-79
2023/12/08 10:18:30;;;;;;;23.10;12.30;;;;;;;2.06;84.80;95727.25;106550;1277;22540;-78
2023/12/08 10:21:19;;;;;;;20.10;10.50;;;;;;;2.04;84.14;95726.52;106568;1277;24274;-78
2023/12/08 10:24:00;;;;;;;19.80;10.80;;;;;;;2.03;84.30;95725.96;106895;1273;22793;-78
2023/12/08 10:26:29;;;;;;;19.70;12.10;;;;;;;2.04;84.33;95722.52;106678;1277;22529;-78
2023/12/08 10:28:59;;;;;;;23.00;11.60;;;;;;;2.05;84.33;95723.39;106657;1277;22529;-78
2023/12/08 10:31:28;;;;;;;17.70;9.80;;;;;;;2.01;84.23;95721.25;106912;1277;24472;-78
2023/12/08 10:33:56;;;;;;;14.70;10.00;;;;;;;1.99;84.53;95721.58;106770;1277;24263;-77
2023/12/08 10:36:25;;;;;;;24.90;12.10;;;;;;;2.03;84.81;95720.94;106519;1277;22568;-78
2023/12/08 10:38:54;;;;;;;20.50;13.10;;;;;;;2.04;84.66;95724.25;106573;1277;22525;-78
2023/12/08 10:41:22;;;;;;;25.30;13.90;;;;;;;2.06;84.84;95723.58;106428;1277;22819;-78
2023/12/08 10:43:50;;;;;;;21.60;12.70;;;;;;;2.08;84.68;95728.30;106423;1277;22582;-78
2023/12/08 10:46:20;;;;;;;26.10;14.00;;;;;;;2.08;84.57;95732.48;106541;1277;22611;-78
2023/12/08 10:48:49;;;;;;;24.40;12.90;;;;;;;2.05;84.41;95730.69;106448;1277;25351;-77
2023/12/08 10:51:18;;;;;;;24.90;13.80;;;;;;;2.03;84.41;95730.13;106540;1277;22657;-78
2023/12/08 10:53:47;;;;;;;19.70;12.60;;;;;;;1.98;84.34;95724.33;106538;1277;24996;-78
2023/12/08 10:56:19;;;;;;;35.00;18.20;;;;;;;1.92;84.34;95728.90;106513;1277;22527;-78
2023/12/08 10:58:56;;;;;;;27.30;15.00;;;;;;;1.86;84.38;95731.23;106410;1277;24261;-78
2023/12/08 11:01:26;;;;;;;15.70;9.90;;;;;;;1.80;84.55;95731.83;106483;1277;25503;-78
2023/12/08 11:04:01;;;;;;;16.60;10.70;;;;;;;1.78;84.78;95727.80;106476;1277;22527;-77
2023/12/08 11:06:42;;;;;;;19.10;11.50;;;;;;;1.80;84.92;95721.77;106438;1277;22634;-78
2023/12/08 11:09:12;;;;;;;17.10;10.20;;;;;;;1.82;84.96;95719.18;106469;1277;22996;-78
2023/12/08 11:11:51;;;;;;;15.10;10.20;;;;;;;1.81;84.95;95714.34;106505;1277;26132;-78
2023/12/08 11:14:38;;;;;;;13.50;9.20;;;;;;;1.82;84.94;95711.75;106447;1277;25390;-78
2023/12/08 11:17:30;;;;;;;14.30;9.00;;;;;;;1.83;84.86;95708.29;106620;1277;22577;-78
2023/12/08 11:19:59;;;;;;;13.20;9.00;;;;;;;1.85;84.88;95705.36;106749;1277;25450;-78
2023/12/08 11:22:27;;;;;;;19.50;11.80;;;;;;;1.86;84.93;95708.50;106511;1277;24202;-78
2023/12/08 11:24:57;;;;;;;16.40;10.70;;;;;;;1.88;84.80;95709.76;106419;1277;22534;-78
2023/12/08 11:27:51;;;;;;;16.40;10.40;;;;;;;1.88;84.35;95706.64;106487;1277;22531;-78